createdAt,value
2018-11-10T00:00:03.337Z,11.40
2018-11-10T00:02:31.198Z,11.40
2018-11-10T00:05:11.008Z,11.40
2018-11-10T00:07:38.760Z,11.40
2018-11-10T00:10:19.973Z,11.50
2018-11-10T00:12:48.333Z,11.60
2018-11-10T00:15:23.918Z,11.50
2018-11-10T00:17:51.813Z,11.60
2018-11-10T00:20:33.575Z,11.60
2018-11-10T00:23:01.367Z,11.60
2018-11-10T00:25:49.011Z,11.70
2018-11-10T00:28:16.812Z,11.60
2018-11-10T00:30:55.051Z,11.60
2018-11-10T00:33:22.904Z,11.50
2018-11-10T00:36:02.298Z,11.50
2018-11-10T00:38:30.024Z,11.60
2018-11-10T00:41:10.949Z,11.60
2018-11-10T00:43:38.771Z,11.60
2018-11-10T00:46:19.907Z,11.70
2018-11-10T00:48:47.737Z,11.60
2018-11-10T00:51:24.934Z,11.70
2018-11-10T00:53:52.733Z,11.70
2018-11-10T00:56:32.809Z,11.70
2018-11-10T00:59:00.742Z,11.80
2018-11-10T01:01:38.633Z,11.80
2018-11-10T01:04:06.441Z,11.90
2018-11-10T01:06:47.815Z,12.00
2018-11-10T01:09:15.517Z,12.10
2018-11-10T01:11:49.271Z,12.10
2018-11-10T01:14:16.991Z,12.10
2018-11-10T01:19:30.388Z,12.20
2018-11-10T01:21:59.073Z,12.20
2018-11-10T01:24:26.847Z,12.20
2018-11-10T01:27:05.537Z,12.20
2018-11-10T01:29:33.377Z,12.10
2018-11-10T01:32:09.615Z,12.10
2018-11-10T01:34:38.594Z,12.00
2018-11-10T01:37:14.528Z,12.00
2018-11-10T01:39:42.528Z,11.90
2018-11-10T01:42:18.564Z,11.80
2018-11-10T01:44:46.517Z,11.80
2018-11-10T01:47:23.492Z,11.70
2018-11-10T01:49:51.887Z,11.60
2018-11-10T01:52:30.598Z,11.60
2018-11-10T01:54:59.297Z,11.60
2018-11-10T01:57:27.407Z,11.70
2018-11-10T02:03:05.068Z,11.80
2018-11-10T02:05:38.731Z,11.90
2018-11-10T02:08:12.561Z,12.00
2018-11-10T02:10:42.328Z,12.10
2018-11-10T02:13:14.097Z,12.10
2018-11-10T02:15:42.978Z,12.10
2018-11-10T02:18:20.374Z,12.10
2018-11-10T02:20:48.312Z,12.10
2018-11-10T02:23:24.172Z,12.20
2018-11-10T02:25:51.880Z,12.20
2018-11-10T02:28:29.655Z,12.30
2018-11-10T02:30:57.357Z,12.30
2018-11-10T02:33:33.462Z,12.30
2018-11-10T02:36:01.156Z,12.30
2018-11-10T02:38:41.679Z,12.40
2018-11-10T02:41:09.570Z,12.40
2018-11-10T02:43:45.788Z,12.40
2018-11-10T02:46:13.505Z,12.40
2018-11-10T02:48:49.957Z,12.40
2018-11-10T02:51:17.684Z,12.40
2018-11-10T02:53:53.318Z,12.40
2018-11-10T02:56:21.250Z,12.40
2018-11-10T02:59:00.105Z,12.50
2018-11-10T03:01:28.283Z,12.50
2018-11-10T03:04:12.938Z,12.50
2018-11-10T03:06:40.915Z,12.60
2018-11-10T03:09:14.868Z,12.60
2018-11-10T03:11:43.129Z,12.60
2018-11-10T03:14:15.583Z,12.60
2018-11-10T03:16:46.753Z,12.60
2018-11-10T03:19:20.144Z,12.60
2018-11-10T03:21:48.063Z,12.60
2018-11-10T03:24:24.576Z,12.70
2018-11-10T03:26:52.612Z,12.70
2018-11-10T03:29:32.730Z,12.70
2018-11-10T03:32:00.686Z,12.70
2018-11-10T03:34:35.244Z,12.80
2018-11-10T03:37:03.767Z,12.80
2018-11-10T03:39:39.163Z,12.90
2018-11-10T03:42:07.164Z,12.90
2018-11-10T03:44:46.430Z,13.00
2018-11-10T03:47:14.496Z,13.10
2018-11-10T03:49:50.317Z,13.10
2018-11-10T03:52:18.244Z,13.10
2018-11-10T03:54:53.847Z,13.20
2018-11-10T03:57:21.822Z,13.30
2018-11-10T03:59:59.411Z,13.30
2018-11-10T04:02:27.402Z,13.40
2018-11-10T04:05:06.798Z,13.40
2018-11-10T04:07:34.789Z,13.40
2018-11-10T04:10:10.500Z,13.40
2018-11-10T04:12:38.927Z,13.50
2018-11-10T04:15:14.240Z,13.50
2018-11-10T04:17:42.211Z,13.50
2018-11-10T04:20:22.436Z,13.50
2018-11-10T04:22:50.384Z,13.60
2018-11-10T04:25:25.278Z,13.60
2018-11-10T04:27:53.217Z,13.60
2018-11-10T04:30:31.468Z,13.60
2018-11-10T04:32:59.515Z,13.60
2018-11-10T04:35:34.162Z,13.60
2018-11-10T04:38:02.567Z,13.70
2018-11-10T04:40:39.445Z,13.80
2018-11-10T04:43:07.501Z,13.70
2018-11-10T04:45:44.877Z,13.70
2018-11-10T04:51:09.232Z,13.80
2018-11-10T04:53:51.111Z,13.90
2018-11-10T04:56:18.796Z,13.90
2018-11-10T05:01:33.508Z,13.90
2018-11-10T05:04:02.806Z,14.00
2018-11-10T05:06:30.501Z,14.00
2018-11-10T05:09:09.832Z,14.00
2018-11-10T05:11:37.543Z,14.00
2018-11-10T05:14:12.153Z,14.00
2018-11-10T05:16:39.897Z,14.00
2018-11-10T05:19:17.200Z,14.10
2018-11-10T05:21:44.904Z,14.10
2018-11-10T05:24:21.952Z,14.10
2018-11-10T05:26:49.673Z,14.10
2018-11-10T05:29:33.764Z,14.00
2018-11-10T05:34:59.417Z,14.00
2018-11-10T05:37:34.976Z,14.00
2018-11-10T05:40:02.693Z,14.00
2018-11-10T05:42:41.143Z,13.80
2018-11-10T05:45:09.113Z,13.60
2018-11-10T05:47:45.361Z,13.40
2018-11-10T05:55:52.986Z,12.60
2018-11-10T05:58:20.853Z,12.50
2018-11-10T06:00:58.215Z,12.20
2018-11-10T06:03:25.933Z,12.10
2018-11-10T06:06:04.278Z,11.90
2018-11-10T06:08:33.232Z,11.80
2018-11-10T06:11:08.729Z,11.70
2018-11-10T06:13:36.484Z,11.70
2018-11-10T06:16:13.400Z,11.60
2018-11-10T06:18:41.429Z,11.60
2018-11-10T06:21:19.554Z,11.50
2018-11-10T06:23:50.940Z,11.50
2018-11-10T06:26:26.408Z,11.40
2018-11-10T06:37:34.776Z,11.30
2018-11-10T06:40:03.382Z,11.30
2018-11-10T06:42:41.629Z,11.30
2018-11-10T06:45:09.558Z,11.20
2018-11-10T06:47:44.710Z,11.30
2018-11-10T06:50:12.665Z,11.30
2018-11-10T06:52:49.446Z,11.20
2018-11-10T06:55:17.632Z,11.20
2018-11-10T06:57:58.898Z,11.20
2018-11-10T07:00:26.631Z,11.30
2018-11-10T07:02:59.443Z,11.30
2018-11-10T07:05:27.181Z,11.40
2018-11-10T07:08:07.133Z,11.40
2018-11-10T07:10:34.918Z,11.50
2018-11-10T07:13:10.566Z,11.60
2018-11-10T07:15:39.229Z,11.60
2018-11-10T07:18:13.384Z,11.70
2018-11-10T07:20:41.210Z,11.70
2018-11-10T07:23:18.729Z,11.70
2018-11-10T07:25:47.441Z,11.70
2018-11-10T07:28:27.227Z,11.70
2018-11-10T07:30:54.931Z,11.80
2018-11-10T07:33:31.184Z,11.90
2018-11-10T07:35:59.347Z,12.00
2018-11-10T07:38:37.034Z,12.00
2018-11-10T07:41:05.300Z,12.10
2018-11-10T07:43:39.778Z,12.20
2018-11-10T07:46:09.078Z,12.20
2018-11-10T07:48:46.326Z,12.20
2018-11-10T07:51:14.750Z,12.20
2018-11-10T07:53:49.030Z,12.20
2018-11-10T07:56:16.983Z,12.20
2018-11-10T07:58:53.913Z,12.30
2018-11-10T08:01:22.154Z,12.30
2018-11-10T08:04:04.772Z,12.30
2018-11-10T08:06:33.284Z,12.30
2018-11-10T08:09:04.483Z,12.30
2018-11-10T08:11:33.544Z,12.30
2018-11-10T08:14:09.636Z,12.30
2018-11-10T08:16:38.982Z,12.40
2018-11-10T08:19:14.085Z,12.40
2018-11-10T08:21:43.236Z,12.50
2018-11-10T08:24:18.363Z,12.50
2018-11-10T08:26:46.550Z,12.50
2018-11-10T08:29:23.507Z,12.60
2018-11-10T08:31:53.139Z,12.60
2018-11-10T08:34:31.817Z,12.60
2018-11-10T08:37:00.845Z,12.60
2018-11-10T08:39:28.769Z,12.60
2018-11-10T08:44:44.384Z,12.60
2018-11-10T08:47:12.104Z,12.60
2018-11-10T08:49:40.040Z,12.60
2018-11-10T08:52:08.638Z,12.70
2018-11-10T08:54:36.737Z,12.70
2018-11-10T08:57:32.442Z,12.70
2018-11-10T09:00:06.510Z,12.70
2018-11-10T09:02:35.610Z,12.70
2018-11-10T09:05:04.271Z,12.70
2018-11-10T09:07:34.901Z,12.70
2018-11-10T09:10:03.514Z,12.70
2018-11-10T09:12:31.655Z,12.80
2018-11-10T09:14:59.691Z,12.70
2018-11-10T09:17:27.869Z,12.70
2018-11-10T09:19:56.742Z,12.70
2018-11-10T09:22:47.862Z,12.70
2018-11-10T09:25:19.932Z,12.80
2018-11-10T09:27:47.928Z,12.80
2018-11-10T09:30:16.832Z,12.90
2018-11-10T09:32:44.566Z,12.90
2018-11-10T09:35:13.678Z,13.00
2018-11-10T09:37:43.828Z,13.00
2018-11-10T09:40:31.490Z,13.10
2018-11-10T09:43:04.135Z,13.20
2018-11-10T09:45:32.118Z,13.20
2018-11-10T09:47:59.916Z,13.30
2018-11-10T09:50:27.684Z,13.30
2018-11-10T09:58:34.679Z,13.50
2018-11-10T10:01:10.359Z,13.60
2018-11-10T10:03:39.205Z,13.60
2018-11-10T10:06:13.277Z,13.60
2018-11-10T10:08:41.403Z,13.50
2018-11-10T10:11:40.011Z,13.50
2018-11-10T10:14:08.650Z,13.60
2018-11-10T10:16:38.090Z,13.60
2018-11-10T10:19:06.605Z,13.60
2018-11-10T10:21:34.471Z,13.70
2018-11-10T10:24:02.269Z,13.80
2018-11-10T10:29:22.688Z,14.00
2018-11-10T10:31:55.245Z,14.00
2018-11-10T10:34:23.926Z,14.00
2018-11-10T10:36:53.575Z,13.90
2018-11-10T10:39:21.392Z,13.90
2018-11-10T10:41:49.206Z,13.80
2018-11-10T10:44:17.081Z,13.80
2018-11-10T10:46:44.960Z,13.80
2018-11-10T10:49:15.880Z,13.80
2018-11-10T10:54:29.883Z,13.80
2018-11-10T10:56:57.673Z,13.80
2018-11-10T10:59:32.423Z,13.70
2018-11-10T11:02:06.025Z,13.60
2018-11-10T11:10:00.409Z,13.50
2018-11-10T11:12:28.354Z,13.40
2018-11-10T11:14:56.351Z,13.30
2018-11-10T11:17:24.293Z,13.30
2018-11-10T11:19:52.188Z,13.20
2018-11-10T11:22:50.590Z,13.20
2018-11-10T11:25:18.683Z,13.10
2018-11-10T11:27:46.646Z,13.10
2018-11-10T11:30:15.103Z,13.00
2018-11-10T11:32:47.762Z,12.90
2018-11-10T11:35:16.707Z,12.80
2018-11-10T11:40:35.600Z,12.60
2018-11-10T11:45:48.540Z,12.40
2018-11-10T11:51:17.103Z,12.20
2018-11-10T11:59:44.676Z,12.10
2018-11-10T12:02:18.004Z,12.10
2018-11-10T12:04:45.874Z,12.10
2018-11-10T12:07:13.636Z,12.10
2018-11-10T12:12:30.245Z,12.20
2018-11-10T12:15:01.511Z,12.20
2018-11-10T12:17:29.665Z,12.20
2018-11-10T12:19:57.456Z,12.20
2018-11-10T12:22:25.185Z,12.20
2018-11-10T12:24:53.798Z,12.20
2018-11-10T12:27:21.884Z,12.20
2018-11-10T12:32:47.127Z,12.20
2018-11-10T12:35:14.897Z,12.10
2018-11-10T12:37:43.041Z,12.10
2018-11-10T12:40:12.516Z,12.10
2018-11-10T12:42:40.749Z,12.20
2018-11-10T12:47:57.356Z,12.10
2018-11-10T12:50:25.862Z,12.10
2018-11-10T12:52:53.645Z,12.10
2018-11-10T12:55:21.442Z,12.10
2018-11-10T12:57:52.321Z,12.10
2018-11-10T13:00:20.062Z,12.10
2018-11-10T13:05:50.588Z,12.10
2018-11-10T13:08:22.177Z,12.20
2018-11-10T13:10:50.444Z,12.30
2018-11-10T13:13:18.740Z,12.30
2018-11-10T13:15:46.736Z,12.30
2018-11-10T13:21:16.195Z,12.40
2018-11-10T13:23:50.916Z,12.40
2018-11-10T13:26:28.766Z,12.40
2018-11-10T13:28:59.269Z,12.40
2018-11-10T13:31:28.048Z,12.40
2018-11-10T13:36:33.691Z,12.40
2018-11-10T13:39:02.565Z,12.40
2018-11-10T13:41:30.576Z,12.40
2018-11-10T13:44:00.244Z,12.30
2018-11-10T13:46:28.193Z,12.30
2018-11-10T13:48:56.362Z,12.30
2018-11-10T13:51:24.388Z,12.30
2018-11-10T13:53:52.261Z,12.30
2018-11-10T13:56:20.357Z,12.30
2018-11-10T13:58:48.084Z,12.30
2018-11-10T14:01:15.841Z,12.20
2018-11-10T14:03:47.825Z,12.20
2018-11-10T14:06:15.573Z,12.20
2018-11-10T14:08:44.598Z,12.20
2018-11-10T14:11:12.366Z,12.20
2018-11-10T14:13:40.144Z,12.20
2018-11-10T14:16:13.150Z,12.20
2018-11-10T14:18:40.892Z,12.20
2018-11-10T14:21:08.601Z,12.20
2018-11-10T14:23:36.865Z,12.30
2018-11-10T14:26:04.971Z,12.30
2018-11-10T14:28:33.185Z,12.30
2018-11-10T14:31:01.034Z,12.30
2018-11-10T14:33:28.865Z,12.20
2018-11-10T14:36:00.570Z,12.30
2018-11-10T14:38:28.597Z,12.20
2018-11-10T14:40:56.655Z,12.20
2018-11-10T14:43:25.208Z,12.20
2018-11-10T14:46:02.530Z,12.20
2018-11-10T14:48:30.358Z,12.20
2018-11-10T14:50:58.266Z,12.20
2018-11-10T14:53:30.734Z,12.20
2018-11-10T14:55:58.557Z,12.20
2018-11-10T14:58:27.056Z,12.20
2018-11-10T15:00:59.058Z,12.20
2018-11-10T15:03:26.902Z,12.20
2018-11-10T15:05:54.692Z,12.20
2018-11-10T15:08:27.317Z,12.20
2018-11-10T15:10:55.132Z,12.20
2018-11-10T15:13:22.836Z,12.20
2018-11-10T15:15:54.908Z,12.20
2018-11-10T15:18:22.911Z,12.20
2018-11-10T15:20:51.888Z,12.30
2018-11-10T15:23:23.986Z,12.30
2018-11-10T15:25:51.854Z,12.30
2018-11-10T15:28:19.616Z,12.30
2018-11-10T15:30:50.559Z,12.30
2018-11-10T15:33:18.321Z,12.30
2018-11-10T15:35:46.085Z,12.30
2018-11-10T15:38:18.764Z,12.30
2018-11-10T15:40:46.603Z,12.30
2018-11-10T15:43:14.381Z,12.30
2018-11-10T15:45:46.539Z,12.30
2018-11-10T15:48:14.523Z,12.30
2018-11-10T15:50:50.774Z,12.30
2018-11-10T15:53:19.541Z,12.30
2018-11-10T15:55:47.306Z,12.30
2018-11-10T15:58:16.163Z,12.30
2018-11-10T16:00:44.688Z,12.30
2018-11-10T16:03:12.561Z,12.30
2018-11-10T16:08:21.837Z,12.30
2018-11-10T16:10:49.833Z,12.20
2018-11-10T16:13:22.040Z,12.20
2018-11-10T16:15:49.866Z,12.20
2018-11-10T16:18:18.128Z,12.20
2018-11-10T16:20:49.451Z,12.20
2018-11-10T16:23:28.285Z,12.30
2018-11-10T16:25:57.940Z,12.30
2018-11-10T16:28:25.710Z,12.30
2018-11-10T16:31:01.777Z,12.30
2018-11-10T16:33:29.797Z,12.30
2018-11-10T16:35:57.636Z,12.20
2018-11-10T16:38:33.902Z,12.30
2018-11-10T16:41:03.267Z,12.30
2018-11-10T16:43:31.108Z,12.20
2018-11-10T16:46:06.624Z,12.30
2018-11-10T16:48:34.673Z,12.30
2018-11-10T16:51:02.545Z,12.30
2018-11-10T16:53:35.379Z,12.30
2018-11-10T16:56:04.294Z,12.30
2018-11-10T16:58:32.064Z,12.30
2018-11-10T17:00:59.865Z,12.30
2018-11-10T17:03:27.728Z,12.40
2018-11-10T17:05:59.980Z,12.40
2018-11-10T17:08:29.434Z,12.40
2018-11-10T17:10:57.373Z,12.30
2018-11-10T17:13:25.263Z,12.30
2018-11-10T17:16:00.012Z,12.30
2018-11-10T17:18:27.984Z,12.30
2018-11-10T17:20:56.463Z,12.20
2018-11-10T17:23:35.624Z,12.20
2018-11-10T17:26:03.543Z,12.20
2018-11-10T17:28:31.369Z,12.20
2018-11-10T17:31:09.392Z,12.20
2018-11-10T17:33:37.936Z,12.20
2018-11-10T17:36:06.095Z,12.20
2018-11-10T17:38:41.869Z,12.20
2018-11-10T17:41:09.762Z,12.20
2018-11-10T17:43:37.630Z,12.30
2018-11-10T17:46:07.596Z,12.40
2018-11-10T17:48:38.029Z,12.40
2018-11-10T17:51:05.853Z,12.40
2018-11-10T17:53:33.710Z,12.50
2018-11-10T17:56:01.556Z,12.50
2018-11-10T17:58:35.218Z,12.50
2018-11-10T18:01:03.523Z,12.60
2018-11-10T18:03:32.855Z,12.60
2018-11-10T18:06:00.929Z,12.60
2018-11-10T18:08:28.761Z,12.70
2018-11-10T18:11:04.453Z,12.80
2018-11-10T18:13:32.193Z,12.80
2018-11-10T18:15:59.972Z,12.90
2018-11-10T18:18:33.937Z,13.00
2018-11-10T18:21:01.774Z,13.00
2018-11-10T18:23:30.130Z,13.00
2018-11-10T18:26:04.939Z,13.00
2018-11-10T18:28:32.716Z,13.00
2018-11-10T18:31:00.466Z,13.00
2018-11-10T18:36:23.564Z,13.00
2018-11-10T18:41:47.057Z,12.90
2018-11-10T18:44:15.005Z,13.00
2018-11-10T18:46:43.103Z,13.00
2018-11-10T18:49:11.144Z,13.00
2018-11-10T18:51:39.112Z,13.00
2018-11-10T18:54:07.460Z,13.10
2018-11-10T18:56:37.378Z,13.00
2018-11-10T18:59:06.124Z,13.10
2018-11-10T19:01:34.295Z,13.00
2018-11-10T19:04:02.944Z,13.00
2018-11-10T19:06:31.253Z,12.90
2018-11-10T19:08:59.767Z,12.90
2018-11-10T19:11:27.896Z,12.80
2018-11-10T19:14:01.353Z,12.70
2018-11-10T19:16:29.524Z,12.60
2018-11-10T19:18:57.569Z,12.50
2018-11-10T19:21:31.207Z,12.50
2018-11-10T19:24:02.126Z,12.40
2018-11-10T19:26:30.795Z,12.40
2018-11-10T19:29:05.672Z,12.30
2018-11-10T19:31:33.976Z,12.30
2018-11-10T19:34:02.139Z,12.30
2018-11-10T19:36:40.986Z,12.20
2018-11-10T19:39:09.992Z,12.20
2018-11-10T19:41:38.098Z,12.20
2018-11-10T19:44:18.094Z,12.10
2018-11-10T19:46:46.405Z,12.20
2018-11-10T19:49:14.602Z,12.10
2018-11-10T19:51:53.467Z,12.20
2018-11-10T19:54:21.507Z,12.10
2018-11-10T19:56:49.657Z,12.10
2018-11-10T19:59:28.419Z,12.10
2018-11-10T20:01:56.584Z,12.10
2018-11-10T20:04:24.840Z,12.00
2018-11-10T20:06:58.475Z,12.00
2018-11-10T20:09:26.644Z,12.00
2018-11-10T20:11:54.761Z,12.00
2018-11-10T20:14:32.454Z,12.00
2018-11-10T20:17:00.486Z,12.00
2018-11-10T20:19:28.730Z,12.00
2018-11-10T20:22:06.486Z,12.00
2018-11-10T20:24:34.622Z,12.00
2018-11-10T20:27:02.870Z,12.00
2018-11-10T20:29:31.096Z,12.00
2018-11-10T20:32:07.170Z,12.00
2018-11-10T20:34:35.325Z,12.00
2018-11-10T20:37:03.407Z,12.00
2018-11-10T20:39:38.287Z,12.00
2018-11-10T20:42:06.446Z,12.00
2018-11-10T20:44:34.584Z,11.90
2018-11-10T20:47:07.616Z,12.00
2018-11-10T20:49:35.837Z,12.00
2018-11-10T20:52:03.972Z,12.00
2018-11-10T20:54:38.489Z,11.90
2018-11-10T20:57:06.672Z,11.90
2018-11-10T20:59:34.783Z,11.90
2018-11-10T21:02:08.007Z,11.90
2018-11-10T21:04:36.130Z,11.90
2018-11-10T21:07:04.199Z,11.90
2018-11-10T21:09:39.231Z,11.90
2018-11-10T21:12:07.314Z,11.90
2018-11-10T21:14:35.502Z,11.80
2018-11-10T21:17:14.681Z,11.80
2018-11-10T21:19:42.809Z,11.90
2018-11-10T21:22:14.827Z,11.80
2018-11-10T21:24:45.446Z,11.80
2018-11-10T21:27:13.724Z,11.80
2018-11-10T21:29:42.018Z,11.80
2018-11-10T21:32:15.712Z,11.80
2018-11-10T21:34:43.863Z,11.80
2018-11-10T21:37:12.269Z,11.80
2018-11-10T21:39:49.841Z,11.80
2018-11-10T21:42:17.820Z,11.70
2018-11-10T21:44:47.541Z,11.70
2018-11-10T21:47:25.706Z,11.70
2018-11-10T21:49:53.940Z,11.70
2018-11-10T21:52:22.078Z,11.60
2018-11-10T21:54:55.034Z,11.60
2018-11-10T21:57:23.232Z,11.60
2018-11-10T21:59:51.517Z,11.70
2018-11-10T22:02:29.972Z,11.60
2018-11-10T22:04:57.971Z,11.60
2018-11-10T22:07:27.912Z,11.60
2018-11-10T22:10:04.841Z,11.60
2018-11-10T22:12:33.065Z,11.60
2018-11-10T22:15:01.087Z,11.60
2018-11-10T22:17:34.735Z,11.60
2018-11-10T22:20:02.781Z,11.60
2018-11-10T22:22:30.647Z,11.60
2018-11-10T22:27:53.066Z,11.60
2018-11-10T22:30:21.905Z,11.60
2018-11-10T22:32:50.587Z,11.60
2018-11-10T22:35:19.254Z,11.60
2018-11-10T22:37:47.476Z,11.50
2018-11-10T22:40:22.094Z,11.50
2018-11-10T22:42:50.203Z,11.60
2018-11-10T22:45:19.807Z,11.60
2018-11-10T22:47:56.017Z,11.60
2018-11-10T22:50:25.105Z,11.60
2018-11-10T22:52:56.361Z,11.60
2018-11-10T22:55:33.034Z,11.60
2018-11-10T22:58:01.253Z,11.60
2018-11-10T23:00:29.342Z,11.60
2018-11-10T23:03:07.198Z,11.60
2018-11-10T23:05:35.811Z,11.60
2018-11-10T23:08:03.957Z,11.60
2018-11-10T23:10:44.799Z,11.60
2018-11-10T23:13:12.870Z,11.60
2018-11-10T23:15:40.939Z,11.60
2018-11-10T23:18:09.003Z,11.60
2018-11-10T23:20:37.017Z,11.50
2018-11-10T23:23:09.935Z,11.50
2018-11-10T23:25:38.174Z,11.50
2018-11-10T23:28:06.255Z,11.40
2018-11-10T23:30:48.144Z,11.40
2018-11-10T23:33:16.211Z,11.40
2018-11-10T23:35:44.247Z,11.40
2018-11-10T23:38:35.348Z,11.40
2018-11-10T23:41:18.207Z,11.40
2018-11-10T23:43:46.331Z,11.40
2018-11-10T23:46:14.605Z,11.40
2018-11-10T23:48:52.701Z,11.40
2018-11-10T23:51:20.815Z,11.40
2018-11-10T23:53:48.951Z,11.40
2018-11-10T23:56:24.244Z,11.40
2018-11-10T23:58:52.332Z,11.40
